Time;durP1;ratioP1;P1;durP2;ratioP2;P2;SDS_P1;SDS_P2;PMS_P1;PMS_P2;Temp;Humidity;BMP_temperature;BMP_pressure;BME280_temperature;BME280_humidity;BME280_pressure;Samples;Min_cycle;Max_cycle;Signal;HPM_P1;HPM_P2
2022/06/27 00:02:03;;;;;;;0.10;0.10;;;16.10;99.90;;;;;;4878490;29;20172;-82
2022/06/27 00:04:29;;;;;;;0.60;0.30;;;16.00;99.90;;;;;;4879319;29;20041;-86
2022/06/27 00:06:54;;;;;;;0.10;0.10;;;16.10;99.90;;;;;;4863616;29;20048;-87
2022/06/27 00:09:20;;;;;;;0.00;0.00;;;16.10;99.90;;;;;;4863283;29;20132;-87
2022/06/27 00:11:46;;;;;;;0.00;0.00;;;16.10;99.90;;;;;;4879285;29;20044;-87
2022/06/27 00:14:12;;;;;;;0.00;0.00;;;16.10;99.90;;;;;;4863854;29;20048;-87
2022/06/27 00:16:37;;;;;;;0.00;0.00;;;16.00;99.90;;;;;;4848447;29;20057;-87
2022/06/27 00:19:03;;;;;;;0.10;0.10;;;16.00;99.90;;;;;;4863911;29;20041;-87
2022/06/27 00:21:29;;;;;;;0.13;0.13;;;16.00;99.90;;;;;;4863640;29;20049;-87
2022/06/27 00:23:55;;;;;;;0.10;0.10;;;16.00;99.90;;;;;;4879887;29;20079;-86
2022/06/27 00:26:20;;;;;;;0.00;0.00;;;15.90;99.90;;;;;;4863341;29;20101;-87
2022/06/27 00:28:46;;;;;;;0.13;0.13;;;15.90;99.90;;;;;;4863436;29;20076;-87
2022/06/27 00:31:12;;;;;;;0.10;0.10;;;15.90;99.90;;;;;;4863354;29;20070;-87
2022/06/27 00:33:38;;;;;;;0.22;0.22;;;15.90;99.90;;;;;;4863611;29;20052;-87
2022/06/27 00:36:04;;;;;;;0.10;0.10;;;15.90;99.90;;;;;;4863846;29;20041;-87
2022/06/27 00:38:30;;;;;;;0.05;0.05;;;15.90;99.90;;;;;;4863316;29;20127;-87
2022/06/27 00:40:55;;;;;;;0.03;0.03;;;15.80;99.90;;;;;;4878816;29;20127;-87
2022/06/27 00:43:21;;;;;;;0.13;0.13;;;15.80;99.90;;;;;;4878505;29;20045;-87
2022/06/27 00:45:47;;;;;;;0.00;0.00;;;15.80;99.90;;;;;;4878620;29;20092;-87
2022/06/27 00:48:12;;;;;;;0.20;0.20;;;15.80;99.90;;;;;;4859988;29;20129;-86
2022/06/27 00:50:39;;;;;;;0.05;0.05;;;15.70;99.90;;;;;;4845060;29;20060;-87
2022/06/27 00:53:06;;;;;;;0.20;0.20;;;15.70;99.90;;;;;;4859936;29;20041;-83
2022/06/27 00:55:31;;;;;;;0.00;0.00;;;15.70;99.90;;;;;;4851910;29;20393;-82
2022/06/27 00:58:00;;;;;;;0.00;0.00;;;15.70;99.90;;;;;;4859624;29;20053;-82
2022/06/27 01:00:25;;;;;;;0.13;0.13;;;15.70;99.90;;;;;;4875214;29;20092;-82
2022/06/27 01:02:51;;;;;;;0.43;0.43;;;15.80;99.90;;;;;;4878285;29;20493;-82
2022/06/27 01:05:17;;;;;;;0.55;0.45;;;15.80;99.90;;;;;;4877977;29;20098;-82
2022/06/27 01:07:43;;;;;;;0.10;0.10;;;15.80;99.90;;;;;;4863158;29;20085;-82
2022/06/27 01:10:09;;;;;;;0.00;0.00;;;15.70;99.90;;;;;;4878502;29;20044;-86
2022/06/27 01:12:34;;;;;;;0.30;0.20;;;15.70;99.90;;;;;;4878383;29;20037;-87
2022/06/27 01:15:01;;;;;;;0.20;0.20;;;15.70;99.90;;;;;;4878372;29;20048;-86
2022/06/27 01:17:27;;;;;;;0.10;0.10;;;15.70;99.90;;;;;;4862571;29;20079;-86
2022/06/27 01:19:53;;;;;;;0.10;0.10;;;15.70;99.90;;;;;;4879620;29;20049;-86
2022/06/27 01:22:19;;;;;;;0.20;0.20;;;15.70;99.90;;;;;;4867204;29;20064;-87
2022/06/27 01:24:45;;;;;;;0.08;0.08;;;15.70;99.90;;;;;;4882024;29;20076;-87
2022/06/27 01:27:11;;;;;;;0.40;0.40;;;15.70;99.90;;;;;;4866560;29;20056;-82
2022/06/27 01:29:37;;;;;;;0.00;0.00;;;15.70;99.90;;;;;;4866717;29;20041;-82
2022/06/27 01:32:04;;;;;;;0.50;0.50;;;15.70;99.90;;;;;;4866533;29;20072;-82
2022/06/27 01:34:30;;;;;;;0.00;0.00;;;15.80;99.90;;;;;;4866809;29;20400;-82
2022/06/27 01:36:56;;;;;;;0.10;0.10;;;15.80;99.90;;;;;;4850838;29;20049;-82
2022/06/27 01:39:24;;;;;;;0.10;0.10;;;15.80;99.90;;;;;;4882092;29;20056;-82
2022/06/27 01:41:56;;;;;;;0.25;0.25;;;15.80;99.90;;;;;;4881638;29;20136;-82
2022/06/27 01:44:24;;;;;;;0.25;0.20;;;15.90;99.90;;;;;;4881701;29;20456;-87
2022/06/27 01:46:54;;;;;;;0.20;0.20;;;15.90;99.90;;;;;;4866653;29;20037;-86
2022/06/27 01:49:20;;;;;;;0.00;0.00;;;15.80;99.90;;;;;;4881732;29;20049;-87
2022/06/27 01:51:48;;;;;;;0.28;0.28;;;15.90;99.90;;;;;;4866261;29;20068;-86
2022/06/27 01:54:17;;;;;;;0.30;0.30;;;15.90;99.90;;;;;;4866198;29;20044;-86
2022/06/27 01:56:46;;;;;;;0.00;0.00;;;15.90;99.90;;;;;;4881296;29;20055;-86
2022/06/27 01:59:14;;;;;;;0.00;0.00;;;15.90;99.90;;;;;;4866304;29;20049;-86
2022/06/27 02:01:42;;;;;;;0.70;0.47;;;15.90;99.90;;;;;;4863531;29;20162;-82
2022/06/27 02:04:09;;;;;;;0.30;0.30;;;15.80;99.90;;;;;;4880881;29;20052;-82
2022/06/27 02:06:34;;;;;;;0.57;0.25;;;15.90;99.90;;;;;;4881176;29;20049;-82
2022/06/27 02:09:04;;;;;;;0.15;0.15;;;15.80;99.90;;;;;;4865936;29;20389;-82
2022/06/27 02:11:30;;;;;;;0.28;0.28;;;15.80;99.90;;;;;;4865932;29;20097;-82
2022/06/27 02:13:57;;;;;;;0.32;0.32;;;15.80;99.90;;;;;;4850542;29;20053;-82
2022/06/27 02:16:25;;;;;;;0.00;0.00;;;15.80;99.90;;;;;;4865848;29;20412;-85
2022/06/27 02:18:51;;;;;;;0.10;0.10;;;15.90;99.90;;;;;;4875924;29;20048;-86
2022/06/27 02:21:23;;;;;;;0.20;0.20;;;15.90;99.90;;;;;;4866156;29;20048;-86
2022/06/27 02:23:49;;;;;;;0.00;0.00;;;15.90;99.90;;;;;;4881155;29;20045;-86
2022/06/27 02:26:15;;;;;;;0.22;0.22;;;15.90;99.90;;;;;;4881038;29;20041;-85
2022/06/27 02:28:43;;;;;;;0.10;0.10;;;15.90;99.90;;;;;;4881041;29;20054;-86
2022/06/27 02:31:10;;;;;;;0.00;0.00;;;15.90;99.90;;;;;;4880160;29;20049;-86
2022/06/27 02:33:38;;;;;;;0.40;0.30;;;15.90;99.90;;;;;;4865794;29;20177;-82
2022/06/27 02:36:07;;;;;;;0.00;0.00;;;15.90;99.90;;;;;;4880705;29;20041;-82
2022/06/27 02:38:34;;;;;;;0.10;0.10;;;15.90;99.90;;;;;;4880744;29;20051;-82
2022/06/27 02:41:03;;;;;;;0.10;0.10;;;15.90;99.90;;;;;;4865553;29;20506;-83
2022/06/27 02:43:29;;;;;;;0.20;0.20;;;15.90;99.90;;;;;;4880511;29;20072;-83
2022/06/27 02:45:56;;;;;;;0.20;0.20;;;15.90;99.90;;;;;;4880503;29;20480;-82
2022/06/27 02:48:27;;;;;;;0.10;0.10;;;15.90;99.90;;;;;;4866162;29;20051;-82
2022/06/27 02:50:56;;;;;;;0.32;0.22;;;16.00;99.90;;;;;;4881319;29;20491;-82
2022/06/27 02:53:29;;;;;;;0.43;0.30;;;15.90;99.90;;;;;;4881161;29;20049;-82
2022/06/27 02:55:58;;;;;;;0.38;0.22;;;15.90;99.90;;;;;;4880839;29;20483;-82
2022/06/27 02:58:50;;;;;;;0.03;0.03;;;15.90;99.90;;;;;;4878137;29;20124;-82
2022/06/27 03:01:17;;;;;;;0.10;0.10;;;15.90;99.90;;;;;;4865009;29;20424;-82
2022/06/27 03:03:44;;;;;;;0.63;0.63;;;15.80;99.90;;;;;;4848693;29;20042;-82
2022/06/27 03:06:11;;;;;;;0.30;0.30;;;15.90;99.90;;;;;;4880781;29;20077;-82
2022/06/27 03:08:40;;;;;;;0.10;0.10;;;15.90;99.90;;;;;;4848931;29;20132;-82
2022/06/27 03:11:06;;;;;;;0.32;0.20;;;15.90;99.90;;;;;;4880836;29;20086;-83
2022/06/27 03:13:33;;;;;;;0.10;0.10;;;15.80;99.90;;;;;;4857824;29;20052;-82
2022/06/27 03:15:59;;;;;;;0.00;0.00;;;15.80;99.90;;;;;;4862421;29;20045;-83
2022/06/27 03:18:25;;;;;;;0.00;0.00;;;15.90;99.90;;;;;;4847805;29;20081;-83
2022/06/27 03:20:50;;;;;;;0.35;0.22;;;15.80;99.90;;;;;;4846819;29;20417;-83
2022/06/27 03:23:16;;;;;;;0.22;0.10;;;15.90;99.90;;;;;;4846964;29;20057;-82
2022/06/27 03:25:42;;;;;;;0.10;0.10;;;15.90;99.90;;;;;;4880366;29;20073;-82
2022/06/27 03:28:08;;;;;;;0.20;0.20;;;15.90;99.90;;;;;;4864686;29;20069;-82
2022/06/27 03:30:34;;;;;;;0.00;0.00;;;15.90;99.90;;;;;;4880644;29;20069;-83
2022/06/27 03:33:00;;;;;;;0.25;0.20;;;15.90;99.90;;;;;;4880459;29;20476;-82
2022/06/27 03:35:25;;;;;;;0.10;0.10;;;15.90;99.90;;;;;;4865190;29;20045;-83
2022/06/27 03:37:51;;;;;;;0.20;0.20;;;15.90;99.90;;;;;;4880339;29;20128;-82
2022/06/27 03:40:17;;;;;;;0.15;0.15;;;15.90;99.90;;;;;;4862708;29;20084;-82
2022/06/27 03:42:43;;;;;;;0.20;0.20;;;15.80;99.90;;;;;;4845952;29;20473;-82
2022/06/27 03:45:09;;;;;;;0.00;0.00;;;15.80;99.90;;;;;;4862475;29;20057;-82
2022/06/27 03:47:52;;;;;;;0.10;0.10;;;15.90;99.90;;;;;;4879887;29;20045;-82
2022/06/27 03:50:19;;;;;;;0.20;0.20;;;15.90;99.90;;;;;;4863318;29;20511;-82
2022/06/27 03:52:46;;;;;;;0.55;0.43;;;15.90;99.90;;;;;;4880069;29;20477;-82
2022/06/27 03:55:12;;;;;;;0.00;0.00;;;15.90;99.90;;;;;;4861797;29;20366;-81
2022/06/27 03:57:45;;;;;;;0.00;0.00;;;15.90;99.90;;;;;;4876832;29;20045;-82
2022/06/27 04:00:11;;;;;;;0.20;0.20;;;15.90;99.90;;;;;;4866081;29;20049;-82
2022/06/27 04:02:37;;;;;;;0.00;0.00;;;15.90;99.90;;;;;;4864777;29;20101;-82
2022/06/27 04:05:03;;;;;;;0.17;0.17;;;15.90;99.90;;;;;;4879840;29;20523;-82
2022/06/27 04:07:29;;;;;;;0.30;0.30;;;15.90;99.90;;;;;;4879739;29;20132;-82
2022/06/27 04:09:55;;;;;;;0.63;0.38;;;15.90;99.90;;;;;;4877290;29;20061;-82
2022/06/27 04:12:21;;;;;;;0.43;0.43;;;15.90;99.90;;;;;;4879858;29;20396;-82
2022/06/27 04:14:47;;;;;;;0.08;0.08;;;15.90;99.90;;;;;;4863754;29;20049;-82
2022/06/27 04:17:15;;;;;;;0.03;0.03;;;15.90;99.90;;;;;;4879635;29;20045;-83
2022/06/27 04:19:41;;;;;;;0.03;0.03;;;16.00;99.90;;;;;;4879631;29;20045;-82
2022/06/27 04:22:10;;;;;;;0.43;0.43;;;16.00;99.90;;;;;;4876074;29;20085;-82
2022/06/27 04:24:36;;;;;;;0.20;0.20;;;16.10;99.90;;;;;;4879268;29;20085;-82
2022/06/27 04:27:03;;;;;;;0.30;0.30;;;16.10;99.90;;;;;;4879523;29;20508;-82
2022/06/27 04:29:30;;;;;;;0.20;0.20;;;16.10;99.90;;;;;;4879389;29;20073;-82
2022/06/27 04:31:56;;;;;;;0.20;0.20;;;16.20;99.90;;;;;;4877085;29;20045;-82
2022/06/27 04:34:22;;;;;;;0.15;0.15;;;16.20;99.90;;;;;;4879434;29;20053;-83
2022/06/27 04:36:48;;;;;;;0.13;0.13;;;16.30;99.90;;;;;;4864093;29;20049;-82
2022/06/27 04:39:15;;;;;;;0.00;0.00;;;16.30;99.90;;;;;;4879022;29;20052;-83
2022/06/27 04:41:49;;;;;;;0.25;0.15;;;16.40;99.90;;;;;;4877687;29;20545;-82
2022/06/27 04:44:14;;;;;;;0.10;0.10;;;16.50;99.90;;;;;;4879035;29;20064;-83
2022/06/27 04:46:41;;;;;;;0.30;0.28;;;16.50;99.90;;;;;;4879146;29;20045;-86
2022/06/27 04:49:08;;;;;;;0.30;0.25;;;16.60;99.90;;;;;;4879189;29;20049;-86
2022/06/27 04:51:35;;;;;;;0.30;0.30;;;16.60;99.90;;;;;;4862450;29;20437;-86
2022/06/27 04:54:01;;;;;;;0.88;0.35;;;16.70;99.90;;;;;;4877108;29;20085;-86
2022/06/27 04:56:30;;;;;;;1.35;0.43;;;16.80;99.90;;;;;;4863119;29;20056;-86
2022/06/27 04:58:55;;;;;;;0.10;0.10;;;16.90;99.90;;;;;;4879060;29;20053;-86
2022/06/27 05:01:21;;;;;;;0.10;0.10;;;17.00;99.90;;;;;;4860729;29;20041;-86
2022/06/27 05:03:47;;;;;;;0.25;0.25;;;17.00;99.90;;;;;;4863407;29;20196;-86
2022/06/27 05:06:15;;;;;;;0.32;0.20;;;17.10;99.90;;;;;;4878770;29;20048;-86
2022/06/27 05:08:41;;;;;;;0.00;0.00;;;17.20;99.90;;;;;;4878715;29;20045;-86
2022/06/27 05:11:06;;;;;;;0.40;0.40;;;17.30;99.90;;;;;;4862408;29;20037;-86
2022/06/27 05:13:32;;;;;;;0.28;0.22;;;17.40;99.90;;;;;;4855597;29;20056;-86
2022/06/27 05:15:59;;;;;;;0.20;0.20;;;17.50;99.90;;;;;;4860126;29;20053;-86
2022/06/27 05:18:24;;;;;;;0.10;0.10;;;17.50;99.90;;;;;;4848277;29;20045;-86
2022/06/27 05:20:50;;;;;;;0.40;0.40;;;17.50;99.90;;;;;;4878303;29;20049;-83
2022/06/27 05:23:16;;;;;;;0.00;0.00;;;17.60;99.90;;;;;;4877992;29;20445;-83
2022/06/27 05:25:42;;;;;;;0.10;0.10;;;17.70;99.90;;;;;;4878330;29;20044;-83
2022/06/27 05:28:08;;;;;;;0.40;0.40;;;17.80;99.90;;;;;;4877526;29;20056;-83
2022/06/27 05:30:34;;;;;;;1.05;0.47;;;17.90;99.90;;;;;;4878310;29;20041;-83
2022/06/27 05:33:00;;;;;;;0.20;0.20;;;18.10;99.90;;;;;;4878658;29;20037;-83
2022/06/27 05:35:26;;;;;;;0.10;0.10;;;18.20;99.90;;;;;;4878608;29;20088;-83
2022/06/27 05:37:54;;;;;;;0.45;0.45;;;18.20;99.90;;;;;;4858834;29;20053;-82
2022/06/27 05:40:20;;;;;;;0.68;0.32;;;18.30;99.90;;;;;;4878648;29;20075;-82
2022/06/27 05:42:49;;;;;;;0.73;0.73;;;18.40;99.90;;;;;;4877997;29;20093;-82
2022/06/27 05:45:16;;;;;;;0.38;0.30;;;18.50;99.90;;;;;;4862923;29;20049;-81
2022/06/27 05:47:43;;;;;;;0.95;0.88;;;18.50;99.90;;;;;;4876625;29;20053;-82
2022/06/27 05:50:09;;;;;;;1.17;0.82;;;18.50;99.90;;;;;;4878627;29;20088;-82
2022/06/27 05:52:39;;;;;;;2.15;1.45;;;18.40;99.90;;;;;;4863544;29;20041;-85
2022/06/27 05:55:07;;;;;;;0.55;0.55;;;18.40;99.90;;;;;;4878251;29;20064;-86
2022/06/27 05:57:33;;;;;;;0.28;0.28;;;18.30;99.90;;;;;;4876714;29;20040;-86
2022/06/27 05:59:58;;;;;;;0.80;0.70;;;18.20;99.90;;;;;;4893182;29;20047;-86
2022/06/27 06:02:28;;;;;;;0.25;0.25;;;18.00;99.90;;;;;;4875085;29;20049;-86
2022/06/27 06:04:54;;;;;;;0.10;0.10;;;17.90;99.90;;;;;;4877831;29;20040;-85
2022/06/27 06:07:22;;;;;;;0.38;0.38;;;17.90;99.90;;;;;;4865996;29;20488;-86
2022/06/27 06:09:49;;;;;;;0.45;0.45;;;17.90;99.90;;;;;;4878681;29;20053;-82
2022/06/27 06:12:16;;;;;;;0.45;0.45;;;17.80;99.90;;;;;;4882163;29;20049;-82
2022/06/27 06:14:43;;;;;;;0.17;0.17;;;17.80;99.90;;;;;;4863315;29;20097;-82
2022/06/27 06:17:09;;;;;;;6.63;0.63;;;17.80;99.90;;;;;;4860059;29;20472;-82
2022/06/27 06:19:35;;;;;;;1.13;0.75;;;17.90;99.90;;;;;;4872270;29;20436;-82
2022/06/27 06:22:01;;;;;;;0.52;0.40;;;17.90;99.90;;;;;;4866106;29;20065;-82
2022/06/27 06:24:27;;;;;;;0.15;0.15;;;18.00;99.90;;;;;;4880635;29;20056;-82
2022/06/27 06:26:55;;;;;;;0.20;0.20;;;18.10;99.90;;;;;;4866306;29;20045;-82
2022/06/27 06:29:22;;;;;;;0.85;0.68;;;18.20;99.90;;;;;;4863328;29;20037;-82
2022/06/27 06:31:48;;;;;;;0.90;0.60;;;18.40;99.90;;;;;;4862794;29;20448;-82
2022/06/27 06:34:15;;;;;;;0.63;0.60;;;18.50;99.90;;;;;;4857065;29;20044;-82
2022/06/27 06:36:43;;;;;;;0.68;0.68;;;18.50;99.90;;;;;;4881426;29;20053;-82
2022/06/27 06:39:09;;;;;;;1.55;1.38;;;18.50;99.90;;;;;;4880239;29;20165;-82
2022/06/27 06:41:36;;;;;;;0.73;0.40;;;18.50;99.90;;;;;;4880973;29;20120;-82
2022/06/27 06:44:05;;;;;;;0.20;0.20;;;18.50;99.90;;;;;;4878144;29;20050;-86
2022/06/27 06:46:32;;;;;;;0.40;0.40;;;18.60;99.90;;;;;;4863048;29;20049;-86
2022/06/27 06:49:02;;;;;;;0.30;0.30;;;18.50;99.90;;;;;;4846875;29;20496;-86
2022/06/27 06:51:34;;;;;;;0.25;0.25;;;18.60;99.90;;;;;;4861260;29;20124;-86
2022/06/27 06:54:01;;;;;;;1.15;0.90;;;18.50;99.90;;;;;;4865274;29;20605;-86
2022/06/27 06:56:28;;;;;;;0.35;0.35;;;18.60;99.90;;;;;;4865375;29;20048;-86
2022/06/27 06:58:54;;;;;;;0.43;0.43;;;18.60;99.90;;;;;;4902242;23;20528;-81
2022/06/27 07:01:20;;;;;;;1.67;0.95;;;18.60;99.90;;;;;;4872128;29;20045;-86
2022/06/27 07:03:49;;;;;;;1.10;0.50;;;18.60;99.90;;;;;;4861655;29;20460;-86
2022/06/27 07:06:17;;;;;;;0.40;0.40;;;18.60;99.90;;;;;;4879132;29;20037;-86
2022/06/27 07:08:45;;;;;;;0.30;0.30;;;18.60;99.90;;;;;;4865301;29;20045;-86
2022/06/27 07:11:11;;;;;;;0.30;0.30;;;18.60;99.90;;;;;;4879631;29;20037;-86
2022/06/27 07:13:38;;;;;;;0.00;0.00;;;18.70;99.90;;;;;;4884767;29;20071;-86
2022/06/27 07:16:05;;;;;;;0.63;0.57;;;18.80;99.90;;;;;;4855845;29;20041;-86
2022/06/27 07:18:32;;;;;;;0.10;0.10;;;18.90;99.90;;;;;;4887947;29;20123;-86
2022/06/27 07:20:59;;;;;;;0.13;0.13;;;19.10;99.90;;;;;;4858438;29;20041;-86
2022/06/27 07:23:24;;;;;;;0.68;0.55;;;19.20;99.90;;;;;;4886799;29;20108;-86
2022/06/27 07:25:50;;;;;;;0.55;0.50;;;19.30;99.90;;;;;;4871192;29;20044;-87
2022/06/27 07:28:20;;;;;;;0.35;0.32;;;19.40;99.90;;;;;;4862899;29;20621;-86
2022/06/27 07:30:47;;;;;;;0.32;0.32;;;19.50;99.90;;;;;;4878795;29;20404;-87
2022/06/27 07:33:13;;;;;;;1.88;0.75;;;19.50;99.90;;;;;;4862158;29;20042;-86
2022/06/27 07:35:39;;;;;;;0.08;0.08;;;19.40;99.90;;;;;;4895466;29;20124;-86
2022/06/27 07:38:06;;;;;;;0.13;0.13;;;19.20;99.90;;;;;;4895860;29;20567;-87
2022/06/27 07:40:34;;;;;;;0.50;0.50;;;19.20;99.90;;;;;;4863955;29;20041;-86
2022/06/27 07:43:00;;;;;;;1.65;0.90;;;19.10;99.90;;;;;;4878628;29;20037;-86
2022/06/27 07:45:27;;;;;;;0.40;0.32;;;19.00;99.90;;;;;;4863081;29;20481;-87
2022/06/27 07:47:54;;;;;;;0.75;0.75;;;19.00;99.90;;;;;;4864071;29;20041;-86
2022/06/27 07:50:39;;;;;;;1.17;0.40;;;19.00;99.90;;;;;;4857915;29;20468;-86
2022/06/27 07:53:11;;;;;;;0.52;0.52;;;19.10;99.90;;;;;;4864310;29;20429;-86
2022/06/27 07:55:46;;;;;;;0.10;0.10;;;19.10;99.90;;;;;;4864446;29;20049;-87
2022/06/27 07:58:16;;;;;;;0.32;0.30;;;19.10;99.90;;;;;;4864157;29;20515;-85
2022/06/27 08:00:47;;;;;;;0.10;0.10;;;19.30;99.90;;;;;;4894988;29;20045;-86
2022/06/27 08:06:00;;;;;;;0.20;0.20;;;19.40;99.90;;;;;;4879299;29;20048;-86
2022/06/27 08:08:26;;;;;;;0.22;0.22;;;19.40;99.90;;;;;;4879848;29;20045;-86
2022/06/27 08:10:53;;;;;;;0.20;0.20;;;19.40;99.90;;;;;;4879186;29;20041;-86
2022/06/27 08:13:19;;;;;;;0.63;0.57;;;19.50;99.90;;;;;;4863604;29;20045;-86
2022/06/27 08:15:47;;;;;;;0.50;0.50;;;19.70;99.90;;;;;;4883918;29;20045;-86
2022/06/27 08:18:14;;;;;;;0.75;0.47;;;19.80;99.90;;;;;;4845831;29;20493;-85
2022/06/27 08:20:40;;;;;;;0.32;0.32;;;19.90;99.90;;;;;;4845852;29;20094;-86
2022/06/27 08:23:07;;;;;;;0.60;0.55;;;20.10;99.90;;;;;;4875575;29;20076;-86
2022/06/27 08:25:34;;;;;;;0.03;0.03;;;20.20;99.90;;;;;;4864051;29;20565;-86
2022/06/27 08:28:00;;;;;;;0.10;0.10;;;20.20;99.90;;;;;;4879314;29;20041;-86
2022/06/27 08:30:27;;;;;;;0.30;0.30;;;20.20;99.90;;;;;;4878308;29;20245;-86
2022/06/27 08:32:55;;;;;;;0.10;0.10;;;20.20;99.90;;;;;;4887465;29;20408;-85
2022/06/27 08:35:22;;;;;;;0.90;0.20;;;20.20;99.90;;;;;;4839187;29;20097;-86
2022/06/27 08:37:50;;;;;;;0.10;0.10;;;20.20;99.90;;;;;;4877611;29;20164;-86
2022/06/27 08:40:17;;;;;;;0.20;0.20;;;20.20;99.90;;;;;;4866337;29;20447;-82
2022/06/27 08:42:47;;;;;;;0.20;0.20;;;20.10;99.90;;;;;;4869087;29;20040;-82
2022/06/27 08:45:19;;;;;;;0.20;0.20;;;20.10;99.90;;;;;;4885597;29;20128;-81
2022/06/27 08:47:46;;;;;;;0.65;0.52;;;20.00;99.90;;;;;;4883994;29;20037;-82
2022/06/27 08:50:14;;;;;;;0.30;0.30;;;19.90;99.90;;;;;;4870908;29;20515;-82
2022/06/27 08:52:40;;;;;;;0.40;0.40;;;20.00;99.90;;;;;;4885349;29;20044;-82
2022/06/27 08:55:09;;;;;;;0.43;0.32;;;20.10;99.90;;;;;;4871133;29;20040;-82
2022/06/27 08:57:36;;;;;;;0.25;0.25;;;20.30;99.90;;;;;;4865848;29;20040;-86
2022/06/27 09:00:07;;;;;;;0.35;0.35;;;20.60;99.90;;;;;;4885056;29;20163;-86
2022/06/27 09:02:42;;;;;;;0.10;0.10;;;20.80;99.90;;;;;;4875266;29;20047;-86
2022/06/27 09:05:30;;;;;;;0.20;0.20;;;21.10;99.90;;;;;;4878384;29;20116;-86
2022/06/27 09:08:02;;;;;;;0.17;0.17;;;21.50;99.90;;;;;;4878550;29;20293;-86
2022/06/27 09:10:32;;;;;;;0.20;0.20;;;21.80;99.90;;;;;;4878530;29;20053;-86
2022/06/27 09:13:04;;;;;;;0.70;0.70;;;22.10;99.90;;;;;;4878258;29;20072;-87
2022/06/27 09:15:39;;;;;;;0.38;0.38;;;22.50;99.90;;;;;;4878668;29;20049;-86
2022/06/27 09:18:09;;;;;;;1.67;0.60;;;23.40;99.90;;;;;;4863190;29;20135;-86
2022/06/27 09:20:55;;;;;;;0.47;0.47;;;24.40;99.90;;;;;;4861416;29;20049;-87
2022/06/27 09:23:27;;;;;;;;;;;25.20;99.90;;;;;;4860074;29;20041;-87
2022/06/27 09:26:15;;;;;;;0.32;0.20;;;25.30;99.90;;;;;;4879022;29;19988;-87
2022/06/27 09:28:44;;;;;;;0.22;0.22;;;25.00;99.90;;;;;;4859864;29;20454;-86
2022/06/27 09:31:30;;;;;;;0.38;0.38;;;24.40;99.90;;;;;;4865133;29;20446;-82
2022/06/27 09:34:16;;;;;;;0.32;0.32;;;24.10;99.90;;;;;;4877839;29;20052;-82
2022/06/27 09:36:47;;;;;;;0.45;0.45;;;24.00;99.90;;;;;;4870482;29;20042;-82
2022/06/27 09:39:30;;;;;;;0.35;0.35;;;24.00;99.90;;;;;;4887948;29;20041;-82
2022/06/27 09:42:08;;;;;;;0.43;0.43;;;23.80;99.90;;;;;;4864551;29;20033;-82
2022/06/27 09:44:39;;;;;;;0.32;0.32;;;23.50;99.90;;;;;;4895413;29;20041;-82
2022/06/27 09:47:20;;;;;;;1.17;0.28;;;23.20;99.90;;;;;;4874244;29;20598;-86
2022/06/27 09:49:51;;;;;;;0.30;0.30;;;23.00;99.90;;;;;;4882156;29;20037;-86
2022/06/27 09:52:25;;;;;;;0.65;0.52;;;22.90;99.90;;;;;;4881034;29;20053;-86
2022/06/27 09:54:55;;;;;;;0.38;0.28;;;23.00;99.90;;;;;;4866326;29;20090;-86
2022/06/27 09:57:22;;;;;;;0.90;0.52;;;23.20;99.90;;;;;;4881905;29;20049;-87
2022/06/27 09:59:50;;;;;;;0.30;0.30;;;23.30;99.90;;;;;;4865859;29;20061;-82
2022/06/27 10:02:18;;;;;;;0.17;0.17;;;23.20;99.90;;;;;;4889499;29;20045;-82
2022/06/27 10:04:45;;;;;;;0.08;0.08;;;23.20;99.90;;;;;;4887475;29;20150;-82
2022/06/27 10:07:12;;;;;;;0.38;0.30;;;23.30;99.90;;;;;;4889455;29;20040;-82
2022/06/27 10:09:40;;;;;;;0.98;0.60;;;23.20;99.90;;;;;;4888122;29;20068;-82
2022/06/27 10:12:22;;;;;;;0.65;0.57;;;23.00;99.90;;;;;;4870228;29;20178;-82
2022/06/27 10:15:10;;;;;;;0.25;0.25;;;22.80;99.90;;;;;;4894641;29;20105;-82
2022/06/27 10:17:38;;;;;;;0.22;0.10;;;22.80;99.90;;;;;;4897439;29;20079;-82
2022/06/27 10:20:15;;;;;;;0.00;0.00;;;22.70;99.90;;;;;;4868552;29;20045;-87
2022/06/27 10:22:42;;;;;;;0.10;0.10;;;22.60;99.90;;;;;;4872825;29;20048;-87
2022/06/27 10:25:26;;;;;;;0.10;0.10;;;22.50;99.90;;;;;;4851217;29;20069;-86
2022/06/27 10:28:10;;;;;;;0.20;0.20;;;22.30;99.90;;;;;;4877787;29;20051;-86
2022/06/27 10:30:52;;;;;;;0.28;0.20;;;22.30;99.90;;;;;;4886441;29;20497;-87
2022/06/27 10:33:24;;;;;;;0.08;0.08;;;22.30;99.90;;;;;;4889697;29;20044;-86
2022/06/27 10:38:49;;;;;;;0.00;0.00;;;22.40;99.90;;;;;;4891915;29;20037;-87
2022/06/27 10:41:18;;;;;;;0.10;0.10;;;22.30;99.90;;;;;;4869914;29;20108;-87
2022/06/27 10:43:43;;;;;;;0.00;0.00;;;22.20;99.90;;;;;;4879712;29;20511;-87
2022/06/27 10:46:09;;;;;;;0.55;0.25;;;22.10;99.90;;;;;;4878314;29;20041;-87
2022/06/27 10:48:39;;;;;;;0.45;0.45;;;22.10;99.90;;;;;;4889066;29;20472;-87
2022/06/27 10:51:29;;;;;;;0.30;0.30;;;22.00;99.90;;;;;;4890055;29;20084;-87
2022/06/27 10:54:06;;;;;;;0.20;0.20;;;22.00;99.90;;;;;;4865915;29;20041;-87
2022/06/27 10:56:34;;;;;;;0.00;0.00;;;22.00;99.90;;;;;;4865909;29;20144;-87
2022/06/27 10:59:00;;;;;;;0.20;0.20;;;22.10;99.90;;;;;;4895726;29;20152;-87
2022/06/27 11:01:27;;;;;;;0.40;0.40;;;22.10;99.90;;;;;;4880633;29;20059;-88
2022/06/27 11:03:53;;;;;;;0.13;0.13;;;22.10;99.90;;;;;;4874951;29;20124;-88
2022/06/27 11:06:19;;;;;;;0.10;0.10;;;22.00;99.90;;;;;;4861864;29;20120;-87
2022/06/27 11:08:47;;;;;;;0.03;0.03;;;22.00;99.90;;;;;;4865243;29;20041;-87
2022/06/27 11:11:17;;;;;;;0.10;0.10;;;22.00;99.90;;;;;;4865133;29;20081;-87
2022/06/27 11:13:45;;;;;;;0.25;0.25;;;22.00;99.90;;;;;;4869058;29;20083;-87
2022/06/27 11:16:17;;;;;;;0.22;0.22;;;22.20;99.90;;;;;;4879178;29;20076;-87
2022/06/27 11:18:45;;;;;;;0.10;0.10;;;22.30;99.90;;;;;;4860596;29;20457;-86
2022/06/27 11:21:15;;;;;;;0.20;0.20;;;22.40;99.90;;;;;;4864936;29;20041;-87
2022/06/27 11:23:51;;;;;;;0.05;0.05;;;22.40;99.90;;;;;;4880472;29;20044;-87
2022/06/27 11:26:19;;;;;;;0.30;0.30;;;22.40;99.90;;;;;;4869747;29;20468;-82
2022/06/27 11:34:14;;;;;;;0.10;0.10;;;22.30;99.90;;;;;;4880133;29;20455;-82
2022/06/27 11:36:40;;;;;;;0.88;0.80;;;22.40;99.90;;;;;;4859730;29;20106;-82
2022/06/27 11:39:07;;;;;;;0.20;0.20;;;22.50;99.90;;;;;;4876941;29;20085;-82
2022/06/27 11:41:37;;;;;;;0.57;0.57;;;22.60;99.90;;;;;;4891248;29;20051;-82
2022/06/27 11:44:08;;;;;;;0.55;0.55;;;22.80;99.90;;;;;;4873207;29;20045;-86
2022/06/27 11:46:36;;;;;;;0.30;0.30;;;23.00;99.90;;;;;;4877737;29;20168;-87
2022/06/27 11:49:07;;;;;;;0.70;0.40;;;23.20;99.90;;;;;;4875048;29;20073;-87
2022/06/27 11:51:44;;;;;;;0.20;0.20;;;23.70;99.90;;;;;;4889291;29;20051;-87
2022/06/27 11:54:11;;;;;;;0.10;0.10;;;24.30;99.90;;;;;;4880084;29;20116;-87
2022/06/27 11:56:40;;;;;;;0.10;0.10;;;25.00;99.90;;;;;;4860899;29;20105;-87
2022/06/27 11:59:08;;;;;;;0.75;0.75;;;25.40;99.90;;;;;;4845872;29;20093;-87
2022/06/27 12:01:49;;;;;;;0.20;0.20;;;25.50;99.90;;;;;;4861175;29;20085;-87
2022/06/27 12:04:17;;;;;;;0.10;0.10;;;25.30;99.90;;;;;;4864114;29;20045;-87
2022/06/27 12:07:05;;;;;;;0.63;0.20;;;24.80;99.90;;;;;;4885053;29;20061;-87
2022/06/27 12:09:31;;;;;;;0.00;0.00;;;24.40;99.90;;;;;;4845683;29;20049;-87
2022/06/27 12:11:58;;;;;;;0.00;0.00;;;24.00;99.90;;;;;;4875627;29;20047;-86
2022/06/27 12:14:25;;;;;;;0.20;0.20;;;24.00;99.90;;;;;;4880726;29;20050;-86
2022/06/27 12:16:54;;;;;;;0.32;0.25;;;24.00;99.90;;;;;;4849197;29;20045;-87
2022/06/27 12:19:20;;;;;;;0.10;0.10;;;24.10;99.90;;;;;;4862281;29;20041;-86
2022/06/27 12:21:46;;;;;;;0.10;0.10;;;24.30;99.90;;;;;;4876710;29;20097;-86
2022/06/27 12:24:13;;;;;;;0.05;0.05;;;24.30;99.90;;;;;;4853999;29;20493;-86
2022/06/27 12:26:39;;;;;;;0.10;0.10;;;24.40;99.90;;;;;;4876190;29;20557;-87
2022/06/27 12:29:05;;;;;;;0.13;0.13;;;24.40;99.90;;;;;;4876097;29;20098;-87
2022/06/27 12:31:35;;;;;;;0.10;0.10;;;24.50;99.90;;;;;;4850867;29;20048;-87
2022/06/27 12:34:02;;;;;;;0.22;0.22;;;24.70;99.90;;;;;;4894852;29;20045;-88
2022/06/27 12:36:30;;;;;;;0.17;0.17;;;24.70;99.90;;;;;;4878141;29;20563;-87
2022/06/27 12:38:56;;;;;;;1.35;0.32;;;24.60;99.90;;;;;;4857212;29;20124;-87
2022/06/27 12:41:22;;;;;;;0.10;0.10;;;24.50;99.90;;;;;;4858286;29;20048;-86
2022/06/27 12:43:47;;;;;;;0.05;0.05;;;24.40;99.90;;;;;;4862966;29;22118;-87
2022/06/27 12:46:16;;;;;;;0.13;0.13;;;24.60;99.90;;;;;;4893783;29;20068;-86
2022/06/27 12:48:42;;;;;;;0.10;0.10;;;24.60;99.90;;;;;;4863421;29;20037;-87
2022/06/27 12:51:08;;;;;;;0.35;0.35;;;24.60;99.90;;;;;;4860559;29;20037;-82
2022/06/27 12:53:35;;;;;;;0.10;0.10;;;24.70;99.90;;;;;;4877654;29;20046;-82
2022/06/27 12:56:03;;;;;;;0.40;0.40;;;24.80;99.90;;;;;;4856108;29;20431;-82
2022/06/27 12:58:30;;;;;;;0.15;0.15;;;24.70;99.90;;;;;;4874999;29;20125;-82
2022/06/27 13:00:56;;;;;;;0.22;0.22;;;24.40;99.90;;;;;;4878972;29;20037;-81
2022/06/27 13:03:22;;;;;;;0.60;0.57;;;24.00;99.90;;;;;;4879121;29;20048;-82
2022/06/27 13:05:48;;;;;;;0.22;0.22;;;23.70;99.90;;;;;;4874250;29;20132;-82